Airfield :







YOU CAN JOIN US ON...

 
LOGIN :

Register | Disclaimer

   EN    FR    IT 

 









Legend :    VFR   Marginal VFR   IFR   Intensive IFR   Very Intensive IFR
Visi :
Ceiling :
>= 8 km
>= 3000ft
5 to 8 km
1000 to 3000 ft
1500m to 5 km
500 to 1000 ft
800 to 1500m
200 to 500 ft
< 800m
< 200 ft
Symbols :   Thunderstorms  Fog  Heavy snow  Heavy precipitations  Wind > 20 kt






- Airport Elevation : 787 ft
- IATA code : RUT


KRUT - Rutland - Southern Vermont Regional

CURRENT METAR :
  • 110756Z AUTO 29011G17KT 10SM FEW120 M02/M13 A3010 RMK AO2 SLP193 T10171133 FZRANO $

EXPIRED METARs :
  • 110656Z AUTO 31007G15KT 10SM CLR M01/M09 A3008 RMK AO2 SLP186 T10111094 FZRANO $
  • 110556Z AUTO 28012G18KT 10SM OVC070 M01/M08 A3007 RMK AO2 SLP184 T10061083 10033 21006 51015 FZRANO $

TAF KRUT
Valid from the 11 at 06:00 until the 12 at 06:00 UTC


110530Z 1106/1206 31008KT P6SM BKN080
FM111700 25005KT P6SM FEW200
FM112100 22006KT P6SM SCT090
FM120400 27013G21KT P6SM SCT100



MET'MAP, your aeronautical weather chart ! - Copyright ORBIFLY December 2007 - Disclaimer

ORBIFLY MET'MAP TEAM :

Programming & Development : Alexandra Zaïnal
Concept & original design : Baudouin d'Aumeries
Assistance for programming : Marc-Olivier Méhu
Technical & hardware support : Manuel Goepfert

Contact : metmap@orbifly.com




SOURCES & CREDITS :

   NOAA